Time;durP1;ratioP1;P1;durP2;ratioP2;P2;SDS_P1;SDS_P2;PMS_P1;PMS_P2;Temp;Humidity;BMP_temperature;BMP_pressure;BME280_temperature;BME280_humidity;BME280_pressure;Samples;Min_cycle;Max_cycle;Signal;HPM_P1;HPM_P2
2023/10/28 00:01:28;;;;;;;5.90;3.37;;;;;;;;;;4985065;28;20420;-45
2023/10/28 00:03:54;;;;;;;5.87;3.40;;;;;;;;;;4984758;28;20817;-45
2023/10/28 00:06:20;;;;;;;5.50;2.67;;;;;;;;;;4984418;28;20472;-44
2023/10/28 00:08:46;;;;;;;5.83;3.90;;;;;;;;;;5000718;28;20511;-45
2023/10/28 00:11:12;;;;;;;5.73;3.00;;;;;;;;;;4977444;28;20432;-45
2023/10/28 00:13:39;;;;;;;5.50;2.70;;;;;;;;;;4976827;28;20438;-44
2023/10/28 00:16:05;;;;;;;5.30;2.90;;;;;;;;;;4985893;28;20417;-44
2023/10/28 00:18:33;;;;;;;5.10;2.80;;;;;;;;;;4982578;28;20917;-44
2023/10/28 00:20:59;;;;;;;5.50;3.20;;;;;;;;;;4983749;28;20443;-44
2023/10/28 00:23:25;;;;;;;5.77;3.37;;;;;;;;;;4982675;28;20515;-45
2023/10/28 00:25:51;;;;;;;5.50;3.07;;;;;;;;;;4982249;28;20427;-44
2023/10/28 00:28:17;;;;;;;6.00;3.93;;;;;;;;;;4977116;28;20416;-45
2023/10/28 00:30:43;;;;;;;5.60;3.43;;;;;;;;;;4986108;28;20522;-45
2023/10/28 00:33:09;;;;;;;6.10;3.33;;;;;;;;;;4971344;28;20413;-45
2023/10/28 00:35:37;;;;;;;5.90;3.57;;;;;;;;;;4976948;28;20413;-44
2023/10/28 00:38:03;;;;;;;5.80;3.67;;;;;;;;;;4983912;28;20419;-45
2023/10/28 00:40:30;;;;;;;5.83;3.40;;;;;;;;;;4985444;28;20428;-45
2023/10/28 00:42:56;;;;;;;5.73;3.37;;;;;;;;;;4984227;28;20619;-44
2023/10/28 00:45:22;;;;;;;5.93;3.53;;;;;;;;;;4984973;28;20406;-44
2023/10/28 00:47:53;;;;;;;6.10;3.37;;;;;;;;;;4985044;28;20419;-44
2023/10/28 00:50:19;;;;;;;5.83;3.10;;;;;;;;;;4979911;28;20921;-44
2023/10/28 00:52:47;;;;;;;5.80;3.10;;;;;;;;;;4977189;28;20424;-44
2023/10/28 00:55:13;;;;;;;5.90;3.30;;;;;;;;;;4979590;28;20417;-44
2023/10/28 00:57:41;;;;;;;5.47;3.00;;;;;;;;;;4983314;28;20409;-44
2023/10/28 01:00:07;;;;;;;6.30;3.50;;;;;;;;;;4974052;28;20480;-45
2023/10/28 01:02:35;;;;;;;5.50;3.00;;;;;;;;;;4969633;28;20469;-45
2023/10/28 01:05:02;;;;;;;5.43;2.90;;;;;;;;;;4976018;28;20445;-44
2023/10/28 01:07:28;;;;;;;5.50;2.87;;;;;;;;;;4985001;28;20405;-45
2023/10/28 01:09:54;;;;;;;5.90;3.00;;;;;;;;;;4982465;28;20434;-45
2023/10/28 01:12:23;;;;;;;5.70;3.23;;;;;;;;;;4981445;28;20439;-44
2023/10/28 01:14:50;;;;;;;5.67;2.90;;;;;;;;;;4977100;28;20424;-45
2023/10/28 01:17:16;;;;;;;5.70;3.20;;;;;;;;;;4973671;28;20855;-45
2023/10/28 01:19:42;;;;;;;5.73;3.07;;;;;;;;;;4988422;28;20432;-45
2023/10/28 01:22:08;;;;;;;5.90;3.00;;;;;;;;;;4970963;28;20556;-45
2023/10/28 01:24:35;;;;;;;5.70;2.90;;;;;;;;;;4982354;28;20428;-44
2023/10/28 01:27:01;;;;;;;5.80;3.23;;;;;;;;;;4984057;28;20405;-45
2023/10/28 01:29:28;;;;;;;6.17;3.73;;;;;;;;;;4975824;28;20510;-44
2023/10/28 01:31:54;;;;;;;5.90;3.33;;;;;;;;;;4982443;28;20417;-45
2023/10/28 01:34:22;;;;;;;6.17;3.80;;;;;;;;;;4981453;28;20421;-44
2023/10/28 01:36:48;;;;;;;5.83;3.30;;;;;;;;;;4987200;28;20428;-45
2023/10/28 01:39:15;;;;;;;5.87;3.37;;;;;;;;;;4981473;28;20404;-44
2023/10/28 01:41:41;;;;;;;5.40;3.07;;;;;;;;;;4979494;28;20470;-44
2023/10/28 01:44:07;;;;;;;5.70;3.77;;;;;;;;;;4982399;28;20408;-45
2023/10/28 01:46:33;;;;;;;5.63;3.53;;;;;;;;;;4981355;28;20407;-45
2023/10/28 01:48:59;;;;;;;5.80;3.27;;;;;;;;;;4980465;28;20411;-45
2023/10/28 01:51:26;;;;;;;5.90;3.57;;;;;;;;;;4976338;28;20959;-45
2023/10/28 01:53:52;;;;;;;5.70;3.10;;;;;;;;;;4972931;28;20832;-45
2023/10/28 01:56:18;;;;;;;5.53;3.20;;;;;;;;;;4984624;28;20414;-45
2023/10/28 01:58:44;;;;;;;5.30;3.20;;;;;;;;;;4975774;28;20785;-44
2023/10/28 02:01:10;;;;;;;5.43;3.00;;;;;;;;;;4983763;28;20958;-44
2023/10/28 02:03:36;;;;;;;5.73;3.60;;;;;;;;;;4983131;28;20526;-44
2023/10/28 02:06:02;;;;;;;5.67;3.20;;;;;;;;;;4983597;28;20753;-45
2023/10/28 02:08:28;;;;;;;5.50;3.33;;;;;;;;;;4982510;28;20421;-45
2023/10/28 02:10:53;;;;;;;5.80;3.60;;;;;;;;;;4983430;28;20430;-45
2023/10/28 02:13:19;;;;;;;5.53;3.30;;;;;;;;;;4978678;28;20432;-46
2023/10/28 02:15:51;;;;;;;5.63;3.70;;;;;;;;;;4983843;28;20427;-45
2023/10/28 02:18:18;;;;;;;5.77;3.73;;;;;;;;;;4983300;28;20440;-45
2023/10/28 02:20:44;;;;;;;5.70;3.33;;;;;;;;;;4980167;28;20499;-45
2023/10/28 02:23:10;;;;;;;5.73;3.27;;;;;;;;;;4983220;28;20458;-45
2023/10/28 02:25:36;;;;;;;6.20;4.07;;;;;;;;;;4980984;28;20564;-44
2023/10/28 02:28:03;;;;;;;5.50;4.00;;;;;;;;;;4981723;28;20978;-45
2023/10/28 02:30:29;;;;;;;6.07;3.63;;;;;;;;;;4986653;28;20506;-45
2023/10/28 02:32:55;;;;;;;5.30;2.83;;;;;;;;;;4992415;28;20911;-45
2023/10/28 02:35:21;;;;;;;5.90;3.60;;;;;;;;;;4994502;28;20924;-45
2023/10/28 02:37:47;;;;;;;5.93;3.60;;;;;;;;;;4996447;28;20896;-45
2023/10/28 02:40:13;;;;;;;5.63;3.50;;;;;;;;;;4996105;28;20463;-44
2023/10/28 02:42:39;;;;;;;5.40;3.37;;;;;;;;;;4996273;28;20815;-45
2023/10/28 02:45:07;;;;;;;5.70;3.70;;;;;;;;;;4996193;28;20411;-45
2023/10/28 02:47:33;;;;;;;5.40;3.13;;;;;;;;;;4996244;28;20409;-45
2023/10/28 02:50:00;;;;;;;5.43;3.53;;;;;;;;;;4995873;28;20424;-45
2023/10/28 02:52:26;;;;;;;5.50;3.47;;;;;;;;;;4996146;28;20413;-45
2023/10/28 02:54:52;;;;;;;5.67;3.50;;;;;;;;;;4996139;28;20420;-45
2023/10/28 02:57:19;;;;;;;5.60;3.43;;;;;;;;;;4996070;28;20408;-45
2023/10/28 02:59:45;;;;;;;5.90;3.50;;;;;;;;;;4995626;28;20454;-45
2023/10/28 03:02:11;;;;;;;5.47;3.20;;;;;;;;;;4996022;28;20456;-45
2023/10/28 03:04:37;;;;;;;5.47;3.33;;;;;;;;;;4996000;28;20440;-45
2023/10/28 03:07:03;;;;;;;5.70;3.60;;;;;;;;;;4980512;28;20414;-45
2023/10/28 03:09:30;;;;;;;6.20;3.70;;;;;;;;;;4976038;28;20442;-45
2023/10/28 03:11:56;;;;;;;5.67;3.30;;;;;;;;;;4976308;28;20405;-45
2023/10/28 03:14:22;;;;;;;5.40;3.00;;;;;;;;;;4976377;28;20497;-45
2023/10/28 03:16:48;;;;;;;5.97;3.90;;;;;;;;;;4976357;28;20497;-45
2023/10/28 03:19:14;;;;;;;6.00;3.90;;;;;;;;;;4976121;28;20754;-45
2023/10/28 03:21:40;;;;;;;5.40;3.63;;;;;;;;;;4976167;28;20417;-45
2023/10/28 03:24:07;;;;;;;5.80;3.20;;;;;;;;;;4976243;28;20405;-45
2023/10/28 03:26:33;;;;;;;5.77;3.53;;;;;;;;;;4976106;28;20432;-45
2023/10/28 03:29:02;;;;;;;5.40;3.27;;;;;;;;;;4975835;28;20440;-45
2023/10/28 03:31:28;;;;;;;5.80;3.50;;;;;;;;;;4975968;28;20427;-46
2023/10/28 03:33:54;;;;;;;5.77;3.53;;;;;;;;;;4975955;28;20413;-45
2023/10/28 03:36:21;;;;;;;6.00;3.90;;;;;;;;;;4976004;28;20900;-45
2023/10/28 03:38:47;;;;;;;5.60;3.53;;;;;;;;;;4975827;28;20416;-45
2023/10/28 03:41:13;;;;;;;6.17;3.37;;;;;;;;;;4975517;28;20440;-45
2023/10/28 03:43:40;;;;;;;5.23;2.90;;;;;;;;;;4975570;28;20471;-45
2023/10/28 03:46:06;;;;;;;5.20;2.80;;;;;;;;;;4974534;28;20405;-45
2023/10/28 03:48:32;;;;;;;5.40;2.90;;;;;;;;;;4975516;28;20407;-45
2023/10/28 03:51:04;;;;;;;4.97;2.53;;;;;;;;;;4975459;28;20462;-46
2023/10/28 03:53:30;;;;;;;5.70;3.10;;;;;;;;;;4975340;28;20849;-45
2023/10/28 03:55:56;;;;;;;5.57;3.10;;;;;;;;;;4975670;28;20452;-45
2023/10/28 03:58:22;;;;;;;5.97;3.70;;;;;;;;;;4975273;28;20473;-45
2023/10/28 04:00:54;;;;;;;5.43;2.90;;;;;;;;;;4975231;28;20946;-45
2023/10/28 04:03:20;;;;;;;5.50;2.90;;;;;;;;;;4975392;28;20458;-45
2023/10/28 04:05:47;;;;;;;5.87;3.00;;;;;;;;;;4970210;28;20505;-45
2023/10/28 04:08:13;;;;;;;6.17;3.40;;;;;;;;;;4956001;28;20402;-45
2023/10/28 04:10:39;;;;;;;5.73;3.30;;;;;;;;;;4955786;28;20421;-45
2023/10/28 04:13:05;;;;;;;5.83;3.50;;;;;;;;;;4955747;29;20448;-45
2023/10/28 04:15:31;;;;;;;6.30;3.67;;;;;;;;;;4955949;29;20473;-45
2023/10/28 04:17:58;;;;;;;5.70;3.40;;;;;;;;;;4956101;28;20907;-45
2023/10/28 04:20:24;;;;;;;5.60;2.80;;;;;;;;;;4955543;29;20505;-45
2023/10/28 04:22:50;;;;;;;6.20;3.43;;;;;;;;;;4955907;29;20969;-45
2023/10/28 04:25:16;;;;;;;6.03;3.50;;;;;;;;;;4955720;29;20407;-46
2023/10/28 04:27:42;;;;;;;6.70;3.73;;;;;;;;;;4955751;29;20398;-44
2023/10/28 04:30:10;;;;;;;6.60;3.80;;;;;;;;;;4955349;28;20418;-45
2023/10/28 04:32:39;;;;;;;6.03;3.37;;;;;;;;;;4955687;28;20402;-45
2023/10/28 04:35:05;;;;;;;5.90;3.33;;;;;;;;;;4955613;29;20415;-45
2023/10/28 04:37:32;;;;;;;6.77;3.80;;;;;;;;;;4955532;28;20402;-45
2023/10/28 04:39:57;;;;;;;6.10;3.73;;;;;;;;;;4955098;28;20494;-45
2023/10/28 04:42:23;;;;;;;6.00;3.40;;;;;;;;;;4955378;29;20890;-45
2023/10/28 04:44:50;;;;;;;6.33;3.73;;;;;;;;;;4955599;28;20797;-44
2023/10/28 04:47:16;;;;;;;5.80;3.67;;;;;;;;;;4955700;28;20550;-44
2023/10/28 04:49:42;;;;;;;5.70;3.50;;;;;;;;;;4955238;29;20429;-45
2023/10/28 04:52:08;;;;;;;6.30;3.77;;;;;;;;;;4955419;29;20418;-45
2023/10/28 04:54:34;;;;;;;5.90;3.50;;;;;;;;;;4955177;29;20417;-45
2023/10/28 04:57:02;;;;;;;5.83;3.70;;;;;;;;;;4954855;28;20410;-45
2023/10/28 04:59:29;;;;;;;7.07;4.07;;;;;;;;;;4954626;29;20918;-45
2023/10/28 05:01:55;;;;;;;6.43;3.50;;;;;;;;;;4955000;29;20785;-45
2023/10/28 05:04:23;;;;;;;6.20;3.90;;;;;;;;;;4955079;28;20940;-44
2023/10/28 05:06:49;;;;;;;6.10;3.47;;;;;;;;;;4968364;28;20915;-45
2023/10/28 05:09:15;;;;;;;6.60;3.87;;;;;;;;;;4973854;28;20404;-45
2023/10/28 05:11:43;;;;;;;5.70;2.97;;;;;;;;;;4974185;28;20403;-45
2023/10/28 05:14:11;;;;;;;6.30;3.97;;;;;;;;;;4974303;28;20432;-44
2023/10/28 05:16:37;;;;;;;6.07;3.10;;;;;;;;;;4974168;28;20397;-45
2023/10/28 05:19:03;;;;;;;6.33;3.50;;;;;;;;;;4973862;28;20417;-45
2023/10/28 05:21:29;;;;;;;5.97;2.93;;;;;;;;;;4973867;28;20431;-45
2023/10/28 05:23:55;;;;;;;6.30;3.50;;;;;;;;;;4973816;28;21042;-45
2023/10/28 05:26:21;;;;;;;6.10;3.17;;;;;;;;;;4973932;28;20405;-44
2023/10/28 05:28:47;;;;;;;5.30;2.67;;;;;;;;;;4973872;28;20470;-45
2023/10/28 05:31:14;;;;;;;5.33;2.70;;;;;;;;;;4973771;28;20432;-45
2023/10/28 05:33:40;;;;;;;6.33;3.73;;;;;;;;;;4973842;28;20408;-45
2023/10/28 05:36:06;;;;;;;5.70;2.60;;;;;;;;;;4973802;28;20410;-45
2023/10/28 05:38:32;;;;;;;5.90;3.00;;;;;;;;;;4973648;28;20738;-45
2023/10/28 05:40:58;;;;;;;6.00;3.17;;;;;;;;;;4973330;28;20932;-45
2023/10/28 05:43:24;;;;;;;5.70;2.90;;;;;;;;;;4970142;28;20472;-44
2023/10/28 05:45:50;;;;;;;6.03;3.10;;;;;;;;;;4970818;28;20421;-45
2023/10/28 05:48:17;;;;;;;5.43;2.83;;;;;;;;;;4973434;28;20401;-44
2023/10/28 05:50:43;;;;;;;6.27;3.20;;;;;;;;;;4973193;28;20771;-45
2023/10/28 05:53:09;;;;;;;6.00;3.07;;;;;;;;;;4973379;28;20408;-44
2023/10/28 05:55:34;;;;;;;5.90;3.40;;;;;;;;;;4973371;28;20464;-45
2023/10/28 05:58:00;;;;;;;6.70;3.43;;;;;;;;;;4972502;28;20435;-45
2023/10/28 06:00:28;;;;;;;6.80;3.60;;;;;;;;;;4971441;28;20460;-45
2023/10/28 06:02:54;;;;;;;6.10;3.57;;;;;;;;;;4971431;28;20465;-45
2023/10/28 06:05:20;;;;;;;5.83;3.00;;;;;;;;;;4972078;28;20409;-45
2023/10/28 06:07:49;;;;;;;6.10;3.43;;;;;;;;;;4972064;28;20464;-44
2023/10/28 06:10:15;;;;;;;6.00;3.50;;;;;;;;;;4970820;28;20424;-45
2023/10/28 06:12:41;;;;;;;6.17;3.50;;;;;;;;;;4973199;28;20532;-45
2023/10/28 06:15:08;;;;;;;5.73;3.10;;;;;;;;;;4973271;28;20405;-44
2023/10/28 06:17:35;;;;;;;6.27;3.90;;;;;;;;;;4973220;28;20413;-45
2023/10/28 06:20:01;;;;;;;5.40;3.27;;;;;;;;;;4973140;28;20512;-45
2023/10/28 06:22:27;;;;;;;5.17;2.70;;;;;;;;;;4973068;28;20551;-45
2023/10/28 06:24:54;;;;;;;6.30;3.80;;;;;;;;;;4973193;28;20445;-46
2023/10/28 06:27:22;;;;;;;5.50;3.13;;;;;;;;;;4973072;28;20437;-45
2023/10/28 06:29:48;;;;;;;6.23;3.27;;;;;;;;;;4972720;28;20429;-44
2023/10/28 06:32:14;;;;;;;6.10;3.90;;;;;;;;;;4973064;28;20406;-44
2023/10/28 06:34:40;;;;;;;6.70;3.80;;;;;;;;;;4972890;28;20492;-45
2023/10/28 06:37:06;;;;;;;6.27;3.37;;;;;;;;;;4972971;28;20409;-44
2023/10/28 06:39:35;;;;;;;6.93;4.30;;;;;;;;;;4972744;28;20449;-44
2023/10/28 06:42:01;;;;;;;5.60;3.57;;;;;;;;;;4972901;28;20785;-44
2023/10/28 06:44:28;;;;;;;5.40;3.10;;;;;;;;;;4972982;28;20823;-44
2023/10/28 06:46:53;;;;;;;5.63;2.90;;;;;;;;;;4972960;28;20413;-44
2023/10/28 06:49:19;;;;;;;6.10;3.50;;;;;;;;;;4972413;28;20421;-44
2023/10/28 06:51:46;;;;;;;5.60;2.90;;;;;;;;;;4970517;28;20431;-44
2023/10/28 06:54:12;;;;;;;6.20;2.83;;;;;;;;;;4983860;28;20470;-44
2023/10/28 06:56:38;;;;;;;6.23;2.93;;;;;;;;;;4980764;28;20452;-44
2023/10/28 06:59:04;;;;;;;5.27;2.87;;;;;;;;;;4975505;28;20436;-44
2023/10/28 07:01:32;;;;;;;6.80;3.93;;;;;;;;;;4983025;28;20802;-45
2023/10/28 07:03:58;;;;;;;6.73;4.70;;;;;;;;;;4987735;28;20523;-44
2023/10/28 07:06:24;;;;;;;252.47;65.07;;;;;;;;;;4983785;28;20409;-44
2023/10/28 07:08:50;;;;;;;218.00;65.97;;;;;;;;;;4979708;28;20414;-44
2023/10/28 07:11:16;;;;;;;202.53;65.07;;;;;;;;;;4984666;28;20432;-44
2023/10/28 07:13:42;;;;;;;227.40;65.47;;;;;;;;;;4976741;28;20428;-44
2023/10/28 07:16:08;;;;;;;204.57;66.07;;;;;;;;;;4968754;28;20419;-44
2023/10/28 07:18:34;;;;;;;213.63;66.73;;;;;;;;;;4983231;28;20508;-44
2023/10/28 07:21:00;;;;;;;196.87;63.17;;;;;;;;;;4987329;28;20440;-44
2023/10/28 07:23:26;;;;;;;207.37;66.13;;;;;;;;;;4985825;28;20460;-44
2023/10/28 07:25:56;;;;;;;211.13;66.73;;;;;;;;;;4981897;28;20500;-44
2023/10/28 07:28:22;;;;;;;196.60;64.30;;;;;;;;;;4983065;28;20405;-45
2023/10/28 07:30:50;;;;;;;209.37;66.00;;;;;;;;;;4984135;28;20421;-44
2023/10/28 07:33:16;;;;;;;203.63;63.10;;;;;;;;;;4987194;28;20420;-44
2023/10/28 07:35:47;;;;;;;213.37;64.00;;;;;;;;;;4985067;28;20424;-44
2023/10/28 07:38:13;;;;;;;206.07;65.87;;;;;;;;;;4980021;28;20856;-44
2023/10/28 07:40:40;;;;;;;115.87;52.90;;;;;;;;;;4985731;28;20446;-44
2023/10/28 07:43:06;;;;;;;101.33;50.37;;;;;;;;;;4979954;28;20467;-44
2023/10/28 07:45:33;;;;;;;82.70;49.97;;;;;;;;;;4979792;28;20411;-44
2023/10/28 07:47:59;;;;;;;82.43;51.17;;;;;;;;;;4986824;28;20418;-45
2023/10/28 07:50:25;;;;;;;80.37;50.70;;;;;;;;;;4985328;28;20433;-44
2023/10/28 07:52:51;;;;;;;61.00;45.20;;;;;;;;;;4984522;28;20414;-44
2023/10/28 07:55:17;;;;;;;59.93;44.23;;;;;;;;;;4984987;28;20473;-45
2023/10/28 07:57:44;;;;;;;53.47;43.63;;;;;;;;;;4984470;28;20962;-45
2023/10/28 08:00:11;;;;;;;56.43;44.77;;;;;;;;;;4978470;28;20951;-45
2023/10/28 08:02:38;;;;;;;53.90;43.47;;;;;;;;;;4979926;28;20500;-44
2023/10/28 08:05:04;;;;;;;172.97;63.87;;;;;;;;;;4975331;28;20457;-44
2023/10/28 08:07:30;;;;;;;167.53;61.50;;;;;;;;;;4975277;28;20411;-44
2023/10/28 08:09:57;;;;;;;61.00;45.00;;;;;;;;;;4975401;28;20426;-45
2023/10/28 08:12:25;;;;;;;103.63;53.47;;;;;;;;;;4975187;28;20426;-44
2023/10/28 08:14:52;;;;;;;72.33;46.90;;;;;;;;;;4975220;28;20462;-44
2023/10/28 08:17:18;;;;;;;40.60;36.80;;;;;;;;;;4975240;28;20409;-44
2023/10/28 08:19:44;;;;;;;37.47;34.23;;;;;;;;;;4974808;28;20955;-45
2023/10/28 08:22:12;;;;;;;41.67;37.93;;;;;;;;;;4974980;28;21053;-44
2023/10/28 08:24:39;;;;;;;129.97;59.63;;;;;;;;;;4975070;28;20398;-44
2023/10/28 08:27:05;;;;;;;144.17;62.90;;;;;;;;;;4974937;28;20953;-44
2023/10/28 08:29:32;;;;;;;43.93;39.83;;;;;;;;;;4974899;28;20830;-45
2023/10/28 08:31:58;;;;;;;37.60;34.40;;;;;;;;;;4974432;28;20944;-44
2023/10/28 08:34:25;;;;;;;130.23;57.73;;;;;;;;;;4974660;28;20412;-45
2023/10/28 08:36:51;;;;;;;116.13;54.90;;;;;;;;;;4974869;28;20410;-44
2023/10/28 08:39:17;;;;;;;108.43;56.57;;;;;;;;;;4974534;28;20470;-45
2023/10/28 08:41:44;;;;;;;112.80;53.73;;;;;;;;;;4974619;28;20405;-44
2023/10/28 08:44:12;;;;;;;74.27;40.23;;;;;;;;;;4974661;28;20875;-44
2023/10/28 08:46:38;;;;;;;113.83;53.63;;;;;;;;;;4974713;28;20916;-44
2023/10/28 08:49:05;;;;;;;52.00;41.07;;;;;;;;;;4974322;28;20405;-44
2023/10/28 08:51:31;;;;;;;39.77;36.03;;;;;;;;;;4974459;28;20424;-44
2023/10/28 08:53:59;;;;;;;40.97;37.03;;;;;;;;;;4974556;28;20793;-44
2023/10/28 08:56:26;;;;;;;35.50;32.30;;;;;;;;;;4974956;28;20869;-44
2023/10/28 08:58:52;;;;;;;36.10;32.80;;;;;;;;;;4974494;28;20427;-44
2023/10/28 09:01:27;;;;;;;42.27;37.90;;;;;;;;;;4974364;28;20435;-44
2023/10/28 09:03:55;;;;;;;41.03;37.13;;;;;;;;;;4974629;28;20462;-44
2023/10/28 09:06:21;;;;;;;41.70;37.57;;;;;;;;;;4964661;28;20407;-44
2023/10/28 09:08:48;;;;;;;41.30;37.40;;;;;;;;;;4954749;29;20825;-44
2023/10/28 09:11:14;;;;;;;35.73;32.70;;;;;;;;;;4954696;29;20950;-44
2023/10/28 09:13:45;;;;;;;38.10;34.73;;;;;;;;;;4954834;29;20432;-44
2023/10/28 09:16:11;;;;;;;36.83;33.67;;;;;;;;;;4954815;29;20447;-44
2023/10/28 09:18:40;;;;;;;44.63;40.53;;;;;;;;;;4954739;29;20417;-44
2023/10/28 09:21:09;;;;;;;39.53;36.00;;;;;;;;;;4954898;28;20509;-44
2023/10/28 09:23:35;;;;;;;37.03;34.00;;;;;;;;;;4954631;28;20465;-44
2023/10/28 09:26:01;;;;;;;32.00;29.47;;;;;;;;;;4954617;28;20754;-44
2023/10/28 09:28:27;;;;;;;39.50;36.07;;;;;;;;;;4954658;28;20398;-45
2023/10/28 09:30:54;;;;;;;37.83;34.43;;;;;;;;;;4954290;29;20485;-44
2023/10/28 09:33:20;;;;;;;38.10;34.70;;;;;;;;;;4954616;28;20411;-44
2023/10/28 09:35:46;;;;;;;38.83;35.60;;;;;;;;;;4954352;28;20412;-44
2023/10/28 09:38:13;;;;;;;43.90;39.93;;;;;;;;;;4954421;28;20912;-44
2023/10/28 09:40:39;;;;;;;39.23;36.10;;;;;;;;;;4954166;28;20433;-46
2023/10/28 09:43:06;;;;;;;29.87;27.70;;;;;;;;;;4954203;29;21036;-45
2023/10/28 09:45:32;;;;;;;36.20;33.47;;;;;;;;;;4954350;29;20410;-44
2023/10/28 09:48:05;;;;;;;29.53;27.47;;;;;;;;;;4954339;28;20405;-44
2023/10/28 09:50:31;;;;;;;35.03;32.30;;;;;;;;;;4953875;28;20424;-44
2023/10/28 09:52:58;;;;;;;38.47;35.50;;;;;;;;;;4954168;29;20405;-44
2023/10/28 09:55:27;;;;;;;23.80;22.20;;;;;;;;;;4954203;29;20921;-44
2023/10/28 09:57:57;;;;;;;28.07;26.13;;;;;;;;;;4954175;29;20492;-44
2023/10/28 10:00:25;;;;;;;34.07;31.23;;;;;;;;;;4953819;29;20486;-44
2023/10/28 10:03:00;;;;;;;32.93;30.50;;;;;;;;;;4953886;29;20462;-44
2023/10/28 10:05:33;;;;;;;19.50;18.13;;;;;;;;;;4953934;29;21099;-44
2023/10/28 10:08:01;;;;;;;15.00;13.87;;;;;;;;;;4954167;28;20402;-44
2023/10/28 10:10:27;;;;;;;15.37;14.17;;;;;;;;;;4968999;28;20435;-44
2023/10/28 10:13:01;;;;;;;18.17;16.77;;;;;;;;;;4972862;28;20428;-45
2023/10/28 10:15:30;;;;;;;21.60;20.10;;;;;;;;;;4972463;28;20591;-45
2023/10/28 10:17:59;;;;;;;15.10;14.00;;;;;;;;;;4973165;28;20401;-45
2023/10/28 10:20:26;;;;;;;18.10;16.80;;;;;;;;;;4972872;28;20474;-45
2023/10/28 10:23:01;;;;;;;15.90;14.70;;;;;;;;;;4973153;28;20962;-45
2023/10/28 10:25:33;;;;;;;14.60;13.50;;;;;;;;;;4973185;28;20459;-44
2023/10/28 10:28:13;;;;;;;20.63;19.23;;;;;;;;;;4973034;28;20404;-44
2023/10/28 10:30:39;;;;;;;15.03;13.83;;;;;;;;;;4972829;28;20420;-44
2023/10/28 10:33:05;;;;;;;19.83;18.43;;;;;;;;;;4973039;28;20986;-44
2023/10/28 10:35:32;;;;;;;18.43;17.13;;;;;;;;;;4973216;28;20405;-44
2023/10/28 10:38:04;;;;;;;13.87;12.83;;;;;;;;;;4973059;28;20927;-44
2023/10/28 10:40:34;;;;;;;12.10;11.10;;;;;;;;;;4972733;28;20436;-44
2023/10/28 10:43:07;;;;;;;14.80;13.70;;;;;;;;;;4972904;28;20464;-44
2023/10/28 10:45:36;;;;;;;13.30;12.27;;;;;;;;;;4972980;28;20423;-44
2023/10/28 10:48:08;;;;;;;16.43;15.23;;;;;;;;;;4972803;28;20392;-44
2023/10/28 10:50:37;;;;;;;12.03;11.07;;;;;;;;;;4972723;28;20425;-44
2023/10/28 10:53:06;;;;;;;10.67;9.77;;;;;;;;;;4972420;28;20401;-44
2023/10/28 10:55:32;;;;;;;12.87;11.83;;;;;;;;;;4973555;28;20405;-44
2023/10/28 10:57:58;;;;;;;12.90;11.80;;;;;;;;;;4976717;28;20405;-44
2023/10/28 11:00:25;;;;;;;13.10;12.00;;;;;;;;;;4976315;28;21003;-45
2023/10/28 11:02:53;;;;;;;16.00;14.83;;;;;;;;;;4976758;28;20558;-44
2023/10/28 11:05:19;;;;;;;19.30;17.90;;;;;;;;;;4975258;28;20874;-44
2023/10/28 11:07:45;;;;;;;18.00;16.77;;;;;;;;;;4957327;28;20449;-45
2023/10/28 11:10:12;;;;;;;38.47;36.10;;;;;;;;;;4957004;28;20427;-44
2023/10/28 11:12:38;;;;;;;19.23;17.93;;;;;;;;;;4957152;28;20460;-45
2023/10/28 11:15:04;;;;;;;23.40;21.90;;;;;;;;;;4957078;28;20402;-45
2023/10/28 11:17:30;;;;;;;29.30;27.70;;;;;;;;;;4957113;29;20501;-44
2023/10/28 11:19:58;;;;;;;30.67;28.87;;;;;;;;;;4956843;28;20433;-45
2023/10/28 11:22:25;;;;;;;26.70;25.10;;;;;;;;;;4957054;29;20543;-45
2023/10/28 11:24:58;;;;;;;24.93;23.43;;;;;;;;;;4963289;28;20422;-45
2023/10/28 11:27:27;;;;;;;43.63;40.87;;;;;;;;;;4974992;28;20956;-45
2023/10/28 11:29:59;;;;;;;50.33;47.53;;;;;;;;;;4968320;28;20482;-45
2023/10/28 11:32:27;;;;;;;35.93;33.90;;;;;;;;;;4976325;28;20439;-45
2023/10/28 11:34:53;;;;;;;34.07;32.17;;;;;;;;;;4975864;28;20375;-46
2023/10/28 11:37:22;;;;;;;41.90;39.50;;;;;;;;;;4974259;28;20466;-46
2023/10/28 11:39:49;;;;;;;29.40;27.73;;;;;;;;;;4974415;28;20396;-45
2023/10/28 11:42:19;;;;;;;25.30;23.90;;;;;;;;;;4975904;28;20412;-45
2023/10/28 11:44:49;;;;;;;24.43;23.03;;;;;;;;;;4976056;28;20467;-45
2023/10/28 11:47:15;;;;;;;23.43;22.00;;;;;;;;;;4975733;28;20385;-45
2023/10/28 11:49:41;;;;;;;22.43;21.03;;;;;;;;;;4975475;28;20466;-45
2023/10/28 11:52:09;;;;;;;22.80;21.40;;;;;;;;;;4975351;28;20814;-45
2023/10/28 11:54:35;;;;;;;20.57;19.33;;;;;;;;;;4975769;28;20377;-44
2023/10/28 11:57:01;;;;;;;20.90;19.60;;;;;;;;;;4975720;28;20733;-45
2023/10/28 11:59:27;;;;;;;20.37;19.07;;;;;;;;;;4975333;28;20410;-45
2023/10/28 12:01:53;;;;;;;19.67;18.37;;;;;;;;;;4975622;28;20414;-45
2023/10/28 12:04:23;;;;;;;19.33;18.10;;;;;;;;;;4975607;28;20436;-45
2023/10/28 12:06:49;;;;;;;20.20;18.90;;;;;;;;;;4974695;28;20414;-45
2023/10/28 12:09:15;;;;;;;22.63;21.03;;;;;;;;;;4974670;28;20378;-45
2023/10/28 12:11:41;;;;;;;21.20;19.90;;;;;;;;;;4975357;28;20406;-45
2023/10/28 12:14:08;;;;;;;20.20;18.90;;;;;;;;;;4975704;28;20915;-45
2023/10/28 12:16:38;;;;;;;20.27;19.07;;;;;;;;;;4975283;28;20921;-44
2023/10/28 12:19:07;;;;;;;22.17;20.80;;;;;;;;;;4975037;28;20411;-45
2023/10/28 12:21:34;;;;;;;23.97;22.53;;;;;;;;;;4975196;28;20441;-45
2023/10/28 12:24:00;;;;;;;23.57;22.07;;;;;;;;;;4975220;28;20792;-45
2023/10/28 12:26:26;;;;;;;22.27;20.87;;;;;;;;;;4975255;28;20454;-44
2023/10/28 12:28:52;;;;;;;22.73;21.40;;;;;;;;;;4975218;28;20787;-45
2023/10/28 12:31:25;;;;;;;24.00;22.53;;;;;;;;;;4974853;28;20399;-45
2023/10/28 12:33:51;;;;;;;30.53;28.77;;;;;;;;;;4975051;28;20450;-45
2023/10/28 12:36:18;;;;;;;26.67;25.17;;;;;;;;;;4975169;28;20509;-45
2023/10/28 12:38:44;;;;;;;26.47;24.97;;;;;;;;;;4974949;28;20376;-45
2023/10/28 12:41:11;;;;;;;25.13;23.73;;;;;;;;;;4974605;28;20411;-45
2023/10/28 12:43:36;;;;;;;26.60;25.10;;;;;;;;;;4974866;28;20515;-45
2023/10/28 12:46:03;;;;;;;26.67;25.20;;;;;;;;;;4974810;28;20799;-44
2023/10/28 12:48:30;;;;;;;27.67;26.10;;;;;;;;;;4974619;28;20407;-45
2023/10/28 12:50:55;;;;;;;23.40;22.13;;;;;;;;;;4974439;28;20407;-44
2023/10/28 12:53:21;;;;;;;29.10;27.50;;;;;;;;;;4974689;28;20387;-45
2023/10/28 12:55:47;;;;;;;22.47;21.17;;;;;;;;;;4974731;28;20412;-45
2023/10/28 12:58:13;;;;;;;23.87;22.43;;;;;;;;;;4974545;28;20442;-44
2023/10/28 13:00:40;;;;;;;22.37;21.17;;;;;;;;;;4974245;28;20436;-44
2023/10/28 13:03:06;;;;;;;22.53;21.23;;;;;;;;;;4974391;28;21170;-45
2023/10/28 13:05:32;;;;;;;21.50;20.20;;;;;;;;;;4971450;28;20757;-44
2023/10/28 13:07:58;;;;;;;19.77;18.67;;;;;;;;;;4955032;29;20759;-45
2023/10/28 13:10:24;;;;;;;21.40;20.10;;;;;;;;;;4954678;28;20866;-44
2023/10/28 13:12:50;;;;;;;21.33;20.03;;;;;;;;;;4967736;28;20492;-44
2023/10/28 13:15:17;;;;;;;20.53;19.23;;;;;;;;;;4974665;28;20445;-44
2023/10/28 13:17:43;;;;;;;18.30;17.10;;;;;;;;;;4974016;28;20399;-44
2023/10/28 13:20:09;;;;;;;20.33;19.03;;;;;;;;;;4973461;28;20426;-44
2023/10/28 13:22:35;;;;;;;17.47;16.33;;;;;;;;;;4974022;28;20557;-45
2023/10/28 13:25:01;;;;;;;18.27;17.07;;;;;;;;;;4973959;28;20897;-46
2023/10/28 13:27:27;;;;;;;18.57;17.33;;;;;;;;;;4973923;28;20421;-46
2023/10/28 13:29:53;;;;;;;18.60;17.50;;;;;;;;;;4973510;28;20797;-44
2023/10/28 13:32:19;;;;;;;20.63;19.33;;;;;;;;;;4973650;28;20507;-45
2023/10/28 13:34:45;;;;;;;16.70;15.60;;;;;;;;;;4973861;28;20787;-45
2023/10/28 13:37:11;;;;;;;16.00;14.90;;;;;;;;;;4973757;28;20405;-44
2023/10/28 13:39:37;;;;;;;15.40;14.33;;;;;;;;;;4973414;28;20429;-44
2023/10/28 13:42:04;;;;;;;16.90;15.80;;;;;;;;;;4973766;28;20497;-44
2023/10/28 13:44:30;;;;;;;15.33;14.30;;;;;;;;;;4973536;28;20416;-44
2023/10/28 13:46:56;;;;;;;18.37;17.20;;;;;;;;;;4973484;28;20885;-44
2023/10/28 13:49:23;;;;;;;17.20;16.00;;;;;;;;;;4973090;28;20393;-44
2023/10/28 13:51:49;;;;;;;13.60;12.60;;;;;;;;;;4973514;28;20828;-44
2023/10/28 13:54:15;;;;;;;15.70;14.60;;;;;;;;;;4973537;28;20412;-45
2023/10/28 13:56:41;;;;;;;13.00;12.00;;;;;;;;;;4973407;28;20411;-44
2023/10/28 13:59:07;;;;;;;11.87;10.97;;;;;;;;;;4973062;28;20509;-44
2023/10/28 14:01:36;;;;;;;12.87;11.97;;;;;;;;;;4973952;28;20507;-43
2023/10/28 14:04:03;;;;;;;11.30;10.40;;;;;;;;;;4973238;28;20453;-44
2023/10/28 14:06:30;;;;;;;10.73;9.83;;;;;;;;;;4962608;28;20924;-43
2023/10/28 14:08:56;;;;;;;10.10;9.30;;;;;;;;;;4953848;28;20977;-44
2023/10/28 14:11:23;;;;;;;9.17;8.33;;;;;;;;;;4953743;29;20515;-44
2023/10/28 14:13:49;;;;;;;8.60;7.80;;;;;;;;;;4953763;28;20439;-44
2023/10/28 14:16:19;;;;;;;10.73;9.80;;;;;;;;;;4953911;29;20429;-44
2023/10/28 14:18:49;;;;;;;10.47;9.57;;;;;;;;;;4953804;28;20468;-44
2023/10/28 14:21:16;;;;;;;7.43;6.30;;;;;;;;;;4953684;29;20489;-44
2023/10/28 14:23:42;;;;;;;8.10;7.30;;;;;;;;;;4953811;28;20452;-44
2023/10/28 14:26:09;;;;;;;8.27;7.47;;;;;;;;;;4953748;29;20412;-44